sensor_id;sensor_type;location;lat;lon;timestamp;temperature;humidity
77100;SHT31;66602;48.922;2.414;2023-02-17T00:00:25;12.30;80.40
77100;SHT31;66602;48.922;2.414;2023-02-17T00:03:05;12.25;80.63
77100;SHT31;66602;48.922;2.414;2023-02-17T00:09:57;12.25;80.61
77100;SHT31;66602;48.922;2.414;2023-02-17T00:12:23;12.25;80.71
77100;SHT31;66602;48.922;2.414;2023-02-17T00:14:49;12.23;80.66
77100;SHT31;66602;48.922;2.414;2023-02-17T00:17:14;12.25;80.68
77100;SHT31;66602;48.922;2.414;2023-02-17T00:19:40;12.22;80.79
77100;SHT31;66602;48.922;2.414;2023-02-17T00:22:05;12.23;80.79
77100;SHT31;66602;48.922;2.414;2023-02-17T00:24:32;12.18;80.98
77100;SHT31;66602;48.922;2.414;2023-02-17T00:26:58;12.19;81.01
77100;SHT31;66602;48.922;2.414;2023-02-17T00:29:24;12.18;81.06
77100;SHT31;66602;48.922;2.414;2023-02-17T00:31:51;12.19;80.87
77100;SHT31;66602;48.922;2.414;2023-02-17T00:34:17;12.22;81.04
77100;SHT31;66602;48.922;2.414;2023-02-17T00:36:43;12.21;80.89
77100;SHT31;66602;48.922;2.414;2023-02-17T00:39:14;12.18;80.91
77100;SHT31;66602;48.922;2.414;2023-02-17T00:41:40;12.11;81.16
77100;SHT31;66602;48.922;2.414;2023-02-17T00:44:06;12.15;81.07
77100;SHT31;66602;48.922;2.414;2023-02-17T00:46:31;12.18;81.31
77100;SHT31;66602;48.922;2.414;2023-02-17T00:48:57;12.15;81.33
77100;SHT31;66602;48.922;2.414;2023-02-17T00:51:23;12.21;81.34
77100;SHT31;66602;48.922;2.414;2023-02-17T00:53:49;12.23;81.20
77100;SHT31;66602;48.922;2.414;2023-02-17T00:56:15;12.19;81.53
77100;SHT31;66602;48.922;2.414;2023-02-17T00:58:41;12.19;81.67
77100;SHT31;66602;48.922;2.414;2023-02-17T01:01:08;12.16;81.85
77100;SHT31;66602;48.922;2.414;2023-02-17T01:03:37;12.12;82.22
77100;SHT31;66602;48.922;2.414;2023-02-17T01:06:07;12.15;82.11
77100;SHT31;66602;48.922;2.414;2023-02-17T01:08:34;12.12;82.45
77100;SHT31;66602;48.922;2.414;2023-02-17T01:11:00;12.13;82.37
77100;SHT31;66602;48.922;2.414;2023-02-17T01:13:25;12.09;82.69
77100;SHT31;66602;48.922;2.414;2023-02-17T01:15:52;12.06;82.69
77100;SHT31;66602;48.922;2.414;2023-02-17T01:18:21;12.03;82.82
77100;SHT31;66602;48.922;2.414;2023-02-17T01:20:47;12.02;82.94
77100;SHT31;66602;48.922;2.414;2023-02-17T01:23:13;12.11;82.95
77100;SHT31;66602;48.922;2.414;2023-02-17T01:25:40;12.13;83.00
77100;SHT31;66602;48.922;2.414;2023-02-17T01:28:07;12.13;82.99
77100;SHT31;66602;48.922;2.414;2023-02-17T01:30:33;12.15;83.21
77100;SHT31;66602;48.922;2.414;2023-02-17T01:32:59;12.15;83.23
77100;SHT31;66602;48.922;2.414;2023-02-17T01:35:24;12.11;83.47
77100;SHT31;66602;48.922;2.414;2023-02-17T01:37:50;12.12;83.42
77100;SHT31;66602;48.922;2.414;2023-02-17T01:40:16;12.18;83.40
77100;SHT31;66602;48.922;2.414;2023-02-17T01:42:42;12.15;83.51
77100;SHT31;66602;48.922;2.414;2023-02-17T01:50:23;12.15;83.79
77100;SHT31;66602;48.922;2.414;2023-02-17T01:52:51;12.12;83.83
77100;SHT31;66602;48.922;2.414;2023-02-17T01:55:19;12.11;83.99
77100;SHT31;66602;48.922;2.414;2023-02-17T01:57:46;12.13;83.88
77100;SHT31;66602;48.922;2.414;2023-02-17T02:00:13;12.13;83.90
77100;SHT31;66602;48.922;2.414;2023-02-17T02:02:45;12.11;84.14
77100;SHT31;66602;48.922;2.414;2023-02-17T02:05:11;12.06;84.11
77100;SHT31;66602;48.922;2.414;2023-02-17T02:07:39;12.05;84.33
77100;SHT31;66602;48.922;2.414;2023-02-17T02:10:06;11.99;84.61
77100;SHT31;66602;48.922;2.414;2023-02-17T02:12:35;12.02;84.66
77100;SHT31;66602;48.922;2.414;2023-02-17T02:31:09;11.85;86.17
77100;SHT31;66602;48.922;2.414;2023-02-17T02:34:05;11.79;86.39
77100;SHT31;66602;48.922;2.414;2023-02-17T02:36:58;11.68;87.09
77100;SHT31;66602;48.922;2.414;2023-02-17T02:39:29;11.65;87.44
77100;SHT31;66602;48.922;2.414;2023-02-17T02:42:02;11.62;87.55
77100;SHT31;66602;48.922;2.414;2023-02-17T02:44:30;11.61;87.77
77100;SHT31;66602;48.922;2.414;2023-02-17T02:47:02;11.55;88.26
77100;SHT31;66602;48.922;2.414;2023-02-17T02:49:29;11.50;88.28
77100;SHT31;66602;48.922;2.414;2023-02-17T02:52:17;11.45;88.54
77100;SHT31;66602;48.922;2.414;2023-02-17T02:55:06;11.45;88.54
77100;SHT31;66602;48.922;2.414;2023-02-17T02:57:51;11.44;88.63
77100;SHT31;66602;48.922;2.414;2023-02-17T03:03:32;11.48;88.50
77100;SHT31;66602;48.922;2.414;2023-02-17T03:10:56;11.47;88.82
77100;SHT31;66602;48.922;2.414;2023-02-17T03:13:22;11.45;88.83
77100;SHT31;66602;48.922;2.414;2023-02-17T03:15:48;11.50;89.01
77100;SHT31;66602;48.922;2.414;2023-02-17T03:18:14;11.47;88.96
77100;SHT31;66602;48.922;2.414;2023-02-17T03:20:52;11.48;89.25
77100;SHT31;66602;48.922;2.414;2023-02-17T03:23:19;11.50;89.25
77100;SHT31;66602;48.922;2.414;2023-02-17T03:25:45;11.51;89.20
77100;SHT31;66602;48.922;2.414;2023-02-17T03:28:12;11.51;89.14
77100;SHT31;66602;48.922;2.414;2023-02-17T03:30:38;11.54;89.09
77100;SHT31;66602;48.922;2.414;2023-02-17T03:33:04;11.58;88.87
77100;SHT31;66602;48.922;2.414;2023-02-17T03:35:29;11.55;88.79
77100;SHT31;66602;48.922;2.414;2023-02-17T03:37:55;11.57;88.79
77100;SHT31;66602;48.922;2.414;2023-02-17T03:40:20;11.62;88.67
77100;SHT31;66602;48.922;2.414;2023-02-17T03:42:46;11.65;88.61
77100;SHT31;66602;48.922;2.414;2023-02-17T03:45:11;11.67;88.38
77100;SHT31;66602;48.922;2.414;2023-02-17T03:47:37;11.74;88.19
77100;SHT31;66602;48.922;2.414;2023-02-17T03:50:03;11.72;88.38
77100;SHT31;66602;48.922;2.414;2023-02-17T03:52:28;11.75;88.18
77100;SHT31;66602;48.922;2.414;2023-02-17T03:54:54;11.74;88.37
77100;SHT31;66602;48.922;2.414;2023-02-17T03:57:19;11.77;88.31
77100;SHT31;66602;48.922;2.414;2023-02-17T03:59:45;11.77;88.31
77100;SHT31;66602;48.922;2.414;2023-02-17T04:02:10;11.77;88.32
77100;SHT31;66602;48.922;2.414;2023-02-17T04:04:36;11.74;88.47
77100;SHT31;66602;48.922;2.414;2023-02-17T04:07:03;11.74;88.59
77100;SHT31;66602;48.922;2.414;2023-02-17T04:09:29;11.77;88.55
77100;SHT31;66602;48.922;2.414;2023-02-17T04:11:54;11.75;88.61
77100;SHT31;66602;48.922;2.414;2023-02-17T04:14:20;11.78;88.75
77100;SHT31;66602;48.922;2.414;2023-02-17T04:16:47;11.71;89.18
77100;SHT31;66602;48.922;2.414;2023-02-17T04:19:12;11.65;90.21
77100;SHT31;66602;48.922;2.414;2023-02-17T04:21:38;11.57;90.93
77100;SHT31;66602;48.922;2.414;2023-02-17T04:24:03;11.47;91.43
77100;SHT31;66602;48.922;2.414;2023-02-17T04:26:29;11.38;91.84
77100;SHT31;66602;48.922;2.414;2023-02-17T04:28:55;11.35;92.37
77100;SHT31;66602;48.922;2.414;2023-02-17T04:31:20;11.35;92.41
77100;SHT31;66602;48.922;2.414;2023-02-17T04:33:46;11.33;92.79
77100;SHT31;66602;48.922;2.414;2023-02-17T04:36:12;11.35;92.96
77100;SHT31;66602;48.922;2.414;2023-02-17T04:38:38;11.27;93.04
77100;SHT31;66602;48.922;2.414;2023-02-17T04:41:04;11.27;93.45
77100;SHT31;66602;48.922;2.414;2023-02-17T04:43:30;11.30;93.40
77100;SHT31;66602;48.922;2.414;2023-02-17T04:45:56;11.26;93.52
77100;SHT31;66602;48.922;2.414;2023-02-17T04:48:22;11.31;93.67
77100;SHT31;66602;48.922;2.414;2023-02-17T04:50:48;11.27;93.66
77100;SHT31;66602;48.922;2.414;2023-02-17T04:53:14;11.26;93.59
77100;SHT31;66602;48.922;2.414;2023-02-17T04:55:40;11.31;93.41
77100;SHT31;66602;48.922;2.414;2023-02-17T04:58:07;11.31;93.38
77100;SHT31;66602;48.922;2.414;2023-02-17T05:00:33;11.30;93.48
77100;SHT31;66602;48.922;2.414;2023-02-17T05:02:58;11.34;93.38
77100;SHT31;66602;48.922;2.414;2023-02-17T05:05:24;11.34;93.19
77100;SHT31;66602;48.922;2.414;2023-02-17T05:07:49;11.35;93.52
77100;SHT31;66602;48.922;2.414;2023-02-17T05:10:16;11.33;93.56
77100;SHT31;66602;48.922;2.414;2023-02-17T05:12:42;11.33;93.54
77100;SHT31;66602;48.922;2.414;2023-02-17T05:15:09;11.34;93.51
77100;SHT31;66602;48.922;2.414;2023-02-17T05:17:34;11.38;93.68
77100;SHT31;66602;48.922;2.414;2023-02-17T05:20:00;11.40;93.26
77100;SHT31;66602;48.922;2.414;2023-02-17T05:22:26;11.40;93.39
77100;SHT31;66602;48.922;2.414;2023-02-17T05:24:51;11.43;93.34
77100;SHT31;66602;48.922;2.414;2023-02-17T05:27:17;11.38;93.38
77100;SHT31;66602;48.922;2.414;2023-02-17T05:29:43;11.38;93.47
77100;SHT31;66602;48.922;2.414;2023-02-17T05:32:08;11.40;93.43
77100;SHT31;66602;48.922;2.414;2023-02-17T05:34:35;11.35;93.52
77100;SHT31;66602;48.922;2.414;2023-02-17T05:37:00;11.41;93.34
77100;SHT31;66602;48.922;2.414;2023-02-17T05:39:26;11.45;93.20
77100;SHT31;66602;48.922;2.414;2023-02-17T05:41:52;11.45;93.14
77100;SHT31;66602;48.922;2.414;2023-02-17T05:44:18;11.44;93.28
77100;SHT31;66602;48.922;2.414;2023-02-17T05:46:44;11.50;93.02
77100;SHT31;66602;48.922;2.414;2023-02-17T05:49:10;11.47;93.13
77100;SHT31;66602;48.922;2.414;2023-02-17T05:51:36;11.50;92.90
77100;SHT31;66602;48.922;2.414;2023-02-17T05:54:02;11.50;92.87
77100;SHT31;66602;48.922;2.414;2023-02-17T05:56:27;11.54;92.74
77100;SHT31;66602;48.922;2.414;2023-02-17T05:58:53;11.54;92.65
77100;SHT31;66602;48.922;2.414;2023-02-17T06:01:19;11.55;92.52
77100;SHT31;66602;48.922;2.414;2023-02-17T06:03:44;11.57;92.26
77100;SHT31;66602;48.922;2.414;2023-02-17T06:06:10;11.57;92.25
77100;SHT31;66602;48.922;2.414;2023-02-17T06:08:36;11.62;92.02
77100;SHT31;66602;48.922;2.414;2023-02-17T06:11:02;11.62;92.05
77100;SHT31;66602;48.922;2.414;2023-02-17T06:13:27;11.60;91.95
77100;SHT31;66602;48.922;2.414;2023-02-17T06:15:53;11.60;92.11
77100;SHT31;66602;48.922;2.414;2023-02-17T06:18:19;11.60;92.36
77100;SHT31;66602;48.922;2.414;2023-02-17T06:20:45;11.60;92.15
77100;SHT31;66602;48.922;2.414;2023-02-17T06:23:11;11.64;91.91
77100;SHT31;66602;48.922;2.414;2023-02-17T06:25:39;11.62;92.05
77100;SHT31;66602;48.922;2.414;2023-02-17T06:28:07;11.62;92.01
77100;SHT31;66602;48.922;2.414;2023-02-17T06:30:33;11.64;91.79
77100;SHT31;66602;48.922;2.414;2023-02-17T06:32:59;11.67;91.77
77100;SHT31;66602;48.922;2.414;2023-02-17T06:35:25;11.71;91.58
77100;SHT31;66602;48.922;2.414;2023-02-17T06:37:50;11.78;91.31
77100;SHT31;66602;48.922;2.414;2023-02-17T06:40:16;11.79;91.04
77100;SHT31;66602;48.922;2.414;2023-02-17T06:42:42;11.77;91.15
77100;SHT31;66602;48.922;2.414;2023-02-17T06:45:08;11.77;91.23
77100;SHT31;66602;48.922;2.414;2023-02-17T06:47:34;11.78;91.21
77100;SHT31;66602;48.922;2.414;2023-02-17T06:50:00;11.79;91.16
77100;SHT31;66602;48.922;2.414;2023-02-17T06:52:26;11.82;91.08
77100;SHT31;66602;48.922;2.414;2023-02-17T06:54:52;11.79;91.10
77100;SHT31;66602;48.922;2.414;2023-02-17T06:57:18;11.84;91.06
77100;SHT31;66602;48.922;2.414;2023-02-17T06:59:44;11.91;90.83
77100;SHT31;66602;48.922;2.414;2023-02-17T07:02:10;11.85;90.88
77100;SHT31;66602;48.922;2.414;2023-02-17T07:04:40;11.93;90.80
77100;SHT31;66602;48.922;2.414;2023-02-17T07:07:06;11.95;90.70
77100;SHT31;66602;48.922;2.414;2023-02-17T07:09:32;12.02;90.48
77100;SHT31;66602;48.922;2.414;2023-02-17T07:11:58;12.02;90.37
77100;SHT31;66602;48.922;2.414;2023-02-17T07:14:24;12.06;90.33
77100;SHT31;66602;48.922;2.414;2023-02-17T07:16:50;12.09;90.12
77100;SHT31;66602;48.922;2.414;2023-02-17T07:19:15;12.09;90.05
77100;SHT31;66602;48.922;2.414;2023-02-17T07:21:41;12.11;89.92
77100;SHT31;66602;48.922;2.414;2023-02-17T07:24:07;12.15;89.79
77100;SHT31;66602;48.922;2.414;2023-02-17T07:26:39;12.21;89.62
77100;SHT31;66602;48.922;2.414;2023-02-17T07:29:06;12.22;89.62
77100;SHT31;66602;48.922;2.414;2023-02-17T07:31:42;12.22;89.45
77100;SHT31;66602;48.922;2.414;2023-02-17T07:34:07;12.25;89.41
77100;SHT31;66602;48.922;2.414;2023-02-17T07:36:33;12.28;89.34
77100;SHT31;66602;48.922;2.414;2023-02-17T07:38:59;12.26;89.31
77100;SHT31;66602;48.922;2.414;2023-02-17T07:41:25;12.32;89.27
77100;SHT31;66602;48.922;2.414;2023-02-17T07:43:54;12.32;89.31
77100;SHT31;66602;48.922;2.414;2023-02-17T07:46:20;12.32;89.25
77100;SHT31;66602;48.922;2.414;2023-02-17T07:48:46;12.34;89.08
77100;SHT31;66602;48.922;2.414;2023-02-17T07:51:16;12.39;88.73
77100;SHT31;66602;48.922;2.414;2023-02-17T07:53:42;12.43;88.70
77100;SHT31;66602;48.922;2.414;2023-02-17T07:56:10;12.44;88.65
77100;SHT31;66602;48.922;2.414;2023-02-17T07:58:38;12.47;88.45
77100;SHT31;66602;48.922;2.414;2023-02-17T08:01:15;12.54;88.26
77100;SHT31;66602;48.922;2.414;2023-02-17T08:03:42;12.57;87.98
77100;SHT31;66602;48.922;2.414;2023-02-17T08:06:12;12.56;88.16
77100;SHT31;66602;48.922;2.414;2023-02-17T08:08:39;12.61;87.99
77100;SHT31;66602;48.922;2.414;2023-02-17T08:11:23;12.60;87.92
77100;SHT31;66602;48.922;2.414;2023-02-17T08:14:07;12.64;87.87
77100;SHT31;66602;48.922;2.414;2023-02-17T08:16:33;12.63;87.70
77100;SHT31;66602;48.922;2.414;2023-02-17T08:18:58;12.68;87.48
77100;SHT31;66602;48.922;2.414;2023-02-17T08:21:25;12.71;87.38
77100;SHT31;66602;48.922;2.414;2023-02-17T08:23:52;12.76;87.14
77100;SHT31;66602;48.922;2.414;2023-02-17T08:26:19;12.76;87.09
77100;SHT31;66602;48.922;2.414;2023-02-17T08:28:46;12.81;86.79
77100;SHT31;66602;48.922;2.414;2023-02-17T08:33:46;13.01;85.97
77100;SHT31;66602;48.922;2.414;2023-02-17T08:36:12;13.02;85.81
77100;SHT31;66602;48.922;2.414;2023-02-17T08:38:39;13.01;86.04
77100;SHT31;66602;48.922;2.414;2023-02-17T08:41:18;13.00;86.05
77100;SHT31;66602;48.922;2.414;2023-02-17T08:43:44;13.04;86.04
77100;SHT31;66602;48.922;2.414;2023-02-17T08:46:10;13.04;85.86
77100;SHT31;66602;48.922;2.414;2023-02-17T08:48:36;13.02;85.81
77100;SHT31;66602;48.922;2.414;2023-02-17T08:51:04;13.02;85.71
77100;SHT31;66602;48.922;2.414;2023-02-17T08:53:29;12.97;85.98
77100;SHT31;66602;48.922;2.414;2023-02-17T08:55:55;13.00;85.93
77100;SHT31;66602;48.922;2.414;2023-02-17T08:58:21;13.02;85.69
77100;SHT31;66602;48.922;2.414;2023-02-17T09:00:46;13.15;85.49
77100;SHT31;66602;48.922;2.414;2023-02-17T09:03:12;13.29;84.92
77100;SHT31;66602;48.922;2.414;2023-02-17T09:05:38;13.39;84.23
77100;SHT31;66602;48.922;2.414;2023-02-17T09:08:03;13.52;84.22
77100;SHT31;66602;48.922;2.414;2023-02-17T09:10:30;13.45;84.08
77100;SHT31;66602;48.922;2.414;2023-02-17T09:12:55;13.39;84.04
77100;SHT31;66602;48.922;2.414;2023-02-17T09:15:21;13.26;84.76
77100;SHT31;66602;48.922;2.414;2023-02-17T09:17:47;13.36;84.51
77100;SHT31;66602;48.922;2.414;2023-02-17T09:20:12;13.36;84.35
77100;SHT31;66602;48.922;2.414;2023-02-17T09:22:38;13.31;84.16
77100;SHT31;66602;48.922;2.414;2023-02-17T09:25:04;13.36;84.22
77100;SHT31;66602;48.922;2.414;2023-02-17T09:27:29;13.31;84.39
77100;SHT31;66602;48.922;2.414;2023-02-17T09:29:55;13.29;84.54
77100;SHT31;66602;48.922;2.414;2023-02-17T09:32:21;13.25;84.53
77100;SHT31;66602;48.922;2.414;2023-02-17T09:34:46;13.35;84.56
77100;SHT31;66602;48.922;2.414;2023-02-17T09:37:15;13.43;83.97
77100;SHT31;66602;48.922;2.414;2023-02-17T09:39:42;13.46;83.92
77100;SHT31;66602;48.922;2.414;2023-02-17T09:42:22;13.41;84.17
77100;SHT31;66602;48.922;2.414;2023-02-17T09:44:57;13.48;83.85
77100;SHT31;66602;48.922;2.414;2023-02-17T09:47:54;13.79;82.63
77100;SHT31;66602;48.922;2.414;2023-02-17T09:50:30;14.03;82.02
77100;SHT31;66602;48.922;2.414;2023-02-17T09:53:31;14.30;80.72
77100;SHT31;66602;48.922;2.414;2023-02-17T09:56:00;14.32;80.13
77100;SHT31;66602;48.922;2.414;2023-02-17T09:58:39;14.35;80.28
77100;SHT31;66602;48.922;2.414;2023-02-17T10:01:09;14.09;80.69
77100;SHT31;66602;48.922;2.414;2023-02-17T10:03:50;14.00;80.99
77100;SHT31;66602;48.922;2.414;2023-02-17T10:06:28;14.14;80.58
77100;SHT31;66602;48.922;2.414;2023-02-17T10:09:26;14.30;80.13
77100;SHT31;66602;48.922;2.414;2023-02-17T10:12:02;14.16;80.54
77100;SHT31;66602;48.922;2.414;2023-02-17T10:17:03;14.17;80.43
77100;SHT31;66602;48.922;2.414;2023-02-17T10:19:33;14.04;80.76
77100;SHT31;66602;48.922;2.414;2023-02-17T10:22:06;14.07;80.41
77100;SHT31;66602;48.922;2.414;2023-02-17T10:24:33;13.94;80.81
77100;SHT31;66602;48.922;2.414;2023-02-17T10:32:39;13.94;81.15
77100;SHT31;66602;48.922;2.414;2023-02-17T10:35:15;13.89;81.18
77100;SHT31;66602;48.922;2.414;2023-02-17T10:37:49;13.84;81.24
77100;SHT31;66602;48.922;2.414;2023-02-17T10:40:18;13.77;81.63
77100;SHT31;66602;48.922;2.414;2023-02-17T10:42:46;13.74;81.29
77100;SHT31;66602;48.922;2.414;2023-02-17T10:45:32;13.69;81.56
77100;SHT31;66602;48.922;2.414;2023-02-17T10:48:11;13.86;81.34
77100;SHT31;66602;48.922;2.414;2023-02-17T10:50:40;13.87;80.67
77100;SHT31;66602;48.922;2.414;2023-02-17T10:53:18;14.03;80.07
77100;SHT31;66602;48.922;2.414;2023-02-17T10:58:33;14.10;79.80
77100;SHT31;66602;48.922;2.414;2023-02-17T11:01:02;14.10;79.73
77100;SHT31;66602;48.922;2.414;2023-02-17T11:03:31;14.21;79.54
77100;SHT31;66602;48.922;2.414;2023-02-17T11:05:59;14.38;78.89
77100;SHT31;66602;48.922;2.414;2023-02-17T11:11:16;14.42;78.70
77100;SHT31;66602;48.922;2.414;2023-02-17T11:14:31;14.40;78.65
77100;SHT31;66602;48.922;2.414;2023-02-17T11:16:54;14.27;78.90
77100;SHT31;66602;48.922;2.414;2023-02-17T11:19:30;14.22;79.08
77100;SHT31;66602;48.922;2.414;2023-02-17T11:21:58;14.20;79.15
77100;SHT31;66602;48.922;2.414;2023-02-17T11:24:26;14.31;78.79
77100;SHT31;66602;48.922;2.414;2023-02-17T11:29:22;14.35;78.30
77100;SHT31;66602;48.922;2.414;2023-02-17T11:32:04;14.42;78.32
77100;SHT31;66602;48.922;2.414;2023-02-17T11:34:35;14.44;78.16
77100;SHT31;66602;48.922;2.414;2023-02-17T11:39:48;14.69;77.02
77100;SHT31;66602;48.922;2.414;2023-02-17T11:44:46;14.99;76.23
77100;SHT31;66602;48.922;2.414;2023-02-17T11:52:29;14.64;77.55
77100;SHT31;66602;48.922;2.414;2023-02-17T11:55:17;14.78;77.33
77100;SHT31;66602;48.922;2.414;2023-02-17T11:57:56;15.10;76.32
77100;SHT31;66602;48.922;2.414;2023-02-17T12:00:59;15.13;75.83
77100;SHT31;66602;48.922;2.414;2023-02-17T12:03:46;15.30;75.32
77100;SHT31;66602;48.922;2.414;2023-02-17T12:09:33;15.46;74.83
77100;SHT31;66602;48.922;2.414;2023-02-17T12:12:15;16.25;72.06
77100;SHT31;66602;48.922;2.414;2023-02-17T12:22:58;17.11;68.07
77100;SHT31;66602;48.922;2.414;2023-02-17T12:25:32;17.72;65.50
77100;SHT31;66602;48.922;2.414;2023-02-17T12:30:57;17.83;65.87
77100;SHT31;66602;48.922;2.414;2023-02-17T12:36:17;18.44;63.44
77100;SHT31;66602;48.922;2.414;2023-02-17T12:38:52;17.25;66.84
77100;SHT31;66602;48.922;2.414;2023-02-17T12:41:19;17.12;67.68
77100;SHT31;66602;48.922;2.414;2023-02-17T12:43:53;16.78;69.04
77100;SHT31;66602;48.922;2.414;2023-02-17T12:46:28;16.49;69.70
77100;SHT31;66602;48.922;2.414;2023-02-17T12:49:30;16.52;69.52
77100;SHT31;66602;48.922;2.414;2023-02-17T12:52:07;16.22;70.20
77100;SHT31;66602;48.922;2.414;2023-02-17T12:54:48;16.42;70.01
77100;SHT31;66602;48.922;2.414;2023-02-17T12:57:46;16.42;69.79
77100;SHT31;66602;48.922;2.414;2023-02-17T13:00:28;16.74;69.61
77100;SHT31;66602;48.922;2.414;2023-02-17T13:02:58;16.71;68.78
77100;SHT31;66602;48.922;2.414;2023-02-17T13:05:29;16.43;70.02
77100;SHT31;66602;48.922;2.414;2023-02-17T13:08:06;16.42;70.17
77100;SHT31;66602;48.922;2.414;2023-02-17T13:10:42;16.15;70.27
77100;SHT31;66602;48.922;2.414;2023-02-17T13:13:23;16.02;71.53
77100;SHT31;66602;48.922;2.414;2023-02-17T13:16:04;15.87;71.81
77100;SHT31;66602;48.922;2.414;2023-02-17T13:18:32;15.94;71.78
77100;SHT31;66602;48.922;2.414;2023-02-17T13:21:25;15.92;71.76
77100;SHT31;66602;48.922;2.414;2023-02-17T13:24:13;15.95;71.83
77100;SHT31;66602;48.922;2.414;2023-02-17T13:26:42;16.09;71.28
77100;SHT31;66602;48.922;2.414;2023-02-17T13:31:56;16.39;70.27
77100;SHT31;66602;48.922;2.414;2023-02-17T13:34:43;16.49;69.86
77100;SHT31;66602;48.922;2.414;2023-02-17T13:37:17;16.59;69.74
77100;SHT31;66602;48.922;2.414;2023-02-17T13:39:44;16.32;70.03
77100;SHT31;66602;48.922;2.414;2023-02-17T13:42:31;16.18;71.13
77100;SHT31;66602;48.922;2.414;2023-02-17T13:44:57;16.20;70.89
77100;SHT31;66602;48.922;2.414;2023-02-17T13:47:37;16.15;71.22
77100;SHT31;66602;48.922;2.414;2023-02-17T13:50:03;16.15;70.93
77100;SHT31;66602;48.922;2.414;2023-02-17T13:52:30;16.02;71.88
77100;SHT31;66602;48.922;2.414;2023-02-17T13:55:00;16.09;71.44
77100;SHT31;66602;48.922;2.414;2023-02-17T13:57:33;16.09;71.34
77100;SHT31;66602;48.922;2.414;2023-02-17T14:03:34;16.01;71.84
77100;SHT31;66602;48.922;2.414;2023-02-17T14:05:42;15.97;71.92
77100;SHT31;66602;48.922;2.414;2023-02-17T14:10:42;16.13;71.45
77100;SHT31;66602;48.922;2.414;2023-02-17T14:13:10;16.22;71.33
77100;SHT31;66602;48.922;2.414;2023-02-17T14:15:37;16.33;71.04
77100;SHT31;66602;48.922;2.414;2023-02-17T14:18:13;16.29;70.58
77100;SHT31;66602;48.922;2.414;2023-02-17T14:20:39;16.33;71.07
77100;SHT31;66602;48.922;2.414;2023-02-17T14:23:10;16.32;70.63
77100;SHT31;66602;48.922;2.414;2023-02-17T14:25:39;16.32;70.75
77100;SHT31;66602;48.922;2.414;2023-02-17T14:28:20;16.36;70.66
77100;SHT31;66602;48.922;2.414;2023-02-17T14:30:46;16.16;71.21
77100;SHT31;66602;48.922;2.414;2023-02-17T14:35:58;16.25;70.99
77100;SHT31;66602;48.922;2.414;2023-02-17T14:38:28;16.20;70.96
77100;SHT31;66602;48.922;2.414;2023-02-17T14:40:56;16.25;70.87
77100;SHT31;66602;48.922;2.414;2023-02-17T14:43:22;16.20;71.18
77100;SHT31;66602;48.922;2.414;2023-02-17T14:45:48;16.19;71.34
77100;SHT31;66602;48.922;2.414;2023-02-17T14:48:13;16.16;71.23
77100;SHT31;66602;48.922;2.414;2023-02-17T14:50:40;16.08;71.48
77100;SHT31;66602;48.922;2.414;2023-02-17T14:53:32;16.13;71.44
77100;SHT31;66602;48.922;2.414;2023-02-17T14:56:05;16.19;71.10
77100;SHT31;66602;48.922;2.414;2023-02-17T14:58:32;16.15;71.27
77100;SHT31;66602;48.922;2.414;2023-02-17T15:00:58;16.06;71.18
77100;SHT31;66602;48.922;2.414;2023-02-17T15:03:24;16.12;71.40
77100;SHT31;66602;48.922;2.414;2023-02-17T15:05:51;16.09;71.19
77100;SHT31;66602;48.922;2.414;2023-02-17T15:08:19;16.05;71.20
77100;SHT31;66602;48.922;2.414;2023-02-17T15:10:47;16.08;71.49
77100;SHT31;66602;48.922;2.414;2023-02-17T15:13:19;16.02;71.69
77100;SHT31;66602;48.922;2.414;2023-02-17T15:15:46;16.04;71.38
77100;SHT31;66602;48.922;2.414;2023-02-17T15:18:15;16.02;71.54
77100;SHT31;66602;48.922;2.414;2023-02-17T15:20:43;16.06;71.44
77100;SHT31;66602;48.922;2.414;2023-02-17T15:23:14;16.06;71.75
77100;SHT31;66602;48.922;2.414;2023-02-17T15:25:41;16.05;71.38
77100;SHT31;66602;48.922;2.414;2023-02-17T15:28:11;16.02;71.68
77100;SHT31;66602;48.922;2.414;2023-02-17T15:30:37;16.06;71.61
77100;SHT31;66602;48.922;2.414;2023-02-17T15:33:08;16.02;71.70
77100;SHT31;66602;48.922;2.414;2023-02-17T15:35:35;16.02;71.56
77100;SHT31;66602;48.922;2.414;2023-02-17T15:38:02;15.98;71.77
77100;SHT31;66602;48.922;2.414;2023-02-17T15:40:28;15.94;71.86
77100;SHT31;66602;48.922;2.414;2023-02-17T15:42:56;15.92;72.03
77100;SHT31;66602;48.922;2.414;2023-02-17T15:45:23;15.94;71.94
77100;SHT31;66602;48.922;2.414;2023-02-17T15:48:02;15.97;71.82
77100;SHT31;66602;48.922;2.414;2023-02-17T15:50:29;15.98;72.03
77100;SHT31;66602;48.922;2.414;2023-02-17T15:52:55;15.95;71.88
77100;SHT31;66602;48.922;2.414;2023-02-17T15:55:21;15.97;71.94
77100;SHT31;66602;48.922;2.414;2023-02-17T15:57:58;15.95;72.13
77100;SHT31;66602;48.922;2.414;2023-02-17T16:00:28;15.94;72.18
77100;SHT31;66602;48.922;2.414;2023-02-17T16:02:55;15.97;71.98
77100;SHT31;66602;48.922;2.414;2023-02-17T16:05:23;15.94;72.11
77100;SHT31;66602;48.922;2.414;2023-02-17T16:07:49;16.01;71.80
77100;SHT31;66602;48.922;2.414;2023-02-17T16:10:18;15.98;71.99
77100;SHT31;66602;48.922;2.414;2023-02-17T16:12:45;15.98;72.01
77100;SHT31;66602;48.922;2.414;2023-02-17T16:15:19;15.95;72.14
77100;SHT31;66602;48.922;2.414;2023-02-17T16:17:46;15.92;72.28
77100;SHT31;66602;48.922;2.414;2023-02-17T16:22:44;15.91;72.58
77100;SHT31;66602;48.922;2.414;2023-02-17T16:25:10;15.85;72.77
77100;SHT31;66602;48.922;2.414;2023-02-17T16:27:36;15.79;73.03
77100;SHT31;66602;48.922;2.414;2023-02-17T16:30:24;15.84;72.86
77100;SHT31;66602;48.922;2.414;2023-02-17T16:32:51;15.81;73.12
77100;SHT31;66602;48.922;2.414;2023-02-17T16:35:22;15.75;73.21
77100;SHT31;66602;48.922;2.414;2023-02-17T16:40:18;15.58;73.34
77100;SHT31;66602;48.922;2.414;2023-02-17T16:42:45;15.50;73.45
77100;SHT31;66602;48.922;2.414;2023-02-17T16:45:18;15.43;73.81
77100;SHT31;66602;48.922;2.414;2023-02-17T16:47:48;15.30;73.85
77100;SHT31;66602;48.922;2.414;2023-02-17T16:50:21;15.26;73.88
77100;SHT31;66602;48.922;2.414;2023-02-17T16:52:48;15.13;74.44
77100;SHT31;66602;48.922;2.414;2023-02-17T16:55:17;15.04;74.59
77100;SHT31;66602;48.922;2.414;2023-02-17T16:57:45;15.03;74.26
77100;SHT31;66602;48.922;2.414;2023-02-17T17:00:17;15.04;74.01
77100;SHT31;66602;48.922;2.414;2023-02-17T17:02:44;15.00;74.14
77100;SHT31;66602;48.922;2.414;2023-02-17T17:05:11;15.07;73.84
77100;SHT31;66602;48.922;2.414;2023-02-17T17:07:39;15.00;74.16
77100;SHT31;66602;48.922;2.414;2023-02-17T17:10:10;14.98;73.92
77100;SHT31;66602;48.922;2.414;2023-02-17T17:12:36;14.78;74.78
77100;SHT31;66602;48.922;2.414;2023-02-17T17:15:03;14.69;75.02
77100;SHT31;66602;48.922;2.414;2023-02-17T17:17:31;14.62;75.45
77100;SHT31;66602;48.922;2.414;2023-02-17T17:20:00;14.48;75.88